Time;durP1;ratioP1;P1;durP2;ratioP2;P2;SDS_P1;SDS_P2;PMS_P1;PMS_P2;Temp;Humidity;BMP_temperature;BMP_pressure;BME280_temperature;BME280_humidity;BME280_pressure;Samples;Min_cycle;Max_cycle;Signal;HPM_P1;HPM_P2
2024/04/14 00:04:48;;;;;;;2.23;1.37;;;;;14.10;101649.00;;;;10555841;27;20364;-81
2024/04/14 00:09:50;;;;;;;2.13;1.30;;;;;14.10;101656.00;;;;10555094;27;20288;-80
2024/04/14 00:14:52;;;;;;;4.47;2.03;;;;;14.00;101662.00;;;;10560736;27;21015;-80
2024/04/14 00:19:53;;;;;;;4.03;1.77;;;;;13.80;101662.00;;;;10549120;27;20268;-80
2024/04/14 00:24:56;;;;;;;2.40;1.50;;;;;13.70;101656.00;;;;10560276;27;20328;-80
2024/04/14 00:29:57;;;;;;;6.47;1.70;;;;;13.60;101676.00;;;;10528433;27;20272;-80
2024/04/14 00:34:59;;;;;;;6.10;2.27;;;;;13.60;101666.00;;;;10534050;27;20349;-80
2024/04/14 00:40:01;;;;;;;3.57;1.80;;;;;13.50;101664.00;;;;10579490;27;20266;-80
2024/04/14 00:45:02;;;;;;;4.53;1.93;;;;;13.40;101664.00;;;;10539502;27;20368;-79
2024/04/14 00:50:07;;;;;;;4.63;1.80;;;;;13.30;101663.00;;;;10549680;27;21027;-79
2024/04/14 00:55:11;;;;;;;5.57;1.87;;;;;13.20;101656.00;;;;10562646;27;20347;-79
2024/04/14 01:00:12;;;;;;;5.50;2.10;;;;;13.10;101669.00;;;;10556436;27;20273;-80
2024/04/14 01:05:14;;;;;;;8.23;2.50;;;;;13.00;101654.00;;;;10559871;27;20277;-79
2024/04/14 01:10:16;;;;;;;3.70;2.20;;;;;12.90;101668.00;;;;10540271;27;20265;-79
2024/04/14 01:15:18;;;;;;;6.90;2.57;;;;;12.80;101675.00;;;;10560645;27;20273;-79
2024/04/14 01:20:20;;;;;;;6.07;2.70;;;;;12.70;101667.00;;;;10559136;27;20265;-80
2024/04/14 01:25:22;;;;;;;6.33;3.20;;;;;12.70;101668.00;;;;10556216;27;20269;-80
2024/04/14 01:30:24;;;;;;;6.20;2.80;;;;;12.60;101671.00;;;;10522642;27;20288;-79
2024/04/14 01:35:25;;;;;;;11.83;4.00;;;;;12.50;101676.00;;;;10551128;27;20597;-78
2024/04/14 01:40:28;;;;;;;8.47;3.60;;;;;12.40;101682.00;;;;10554329;27;20278;-80
2024/04/14 01:45:29;;;;;;;9.23;3.33;;;;;12.30;101673.00;;;;10555226;27;20911;-79
2024/04/14 01:50:31;;;;;;;9.17;3.90;;;;;12.20;101670.00;;;;10564935;27;20296;-79
2024/04/14 01:55:32;;;;;;;11.63;4.10;;;;;12.20;101675.00;;;;10515128;27;20277;-80
2024/04/14 02:00:34;;;;;;;10.10;4.03;;;;;12.10;101677.00;;;;10551284;27;20287;-80
2024/04/14 02:05:38;;;;;;;11.17;4.20;;;;;12.00;101668.00;;;;10551013;27;20360;-80
2024/04/14 02:10:41;;;;;;;9.27;4.60;;;;;12.00;101673.00;;;;10528511;27;21077;-79
2024/04/14 02:15:42;;;;;;;11.27;4.60;;;;;12.00;101681.00;;;;10499370;27;20603;-80
2024/04/14 02:20:44;;;;;;;15.63;4.50;;;;;12.00;101685.00;;;;10497556;27;20261;-80
2024/04/14 02:25:55;;;;;;;10.43;4.63;;;;;11.90;101686.00;;;;10505872;27;20288;-79
2024/04/14 02:30:58;;;;;;;10.30;5.20;;;;;11.80;101683.00;;;;10562591;27;20348;-80
2024/04/14 02:36:01;;;;;;;12.57;5.30;;;;;11.80;101684.00;;;;10555604;27;20265;-79
2024/04/14 02:41:04;;;;;;;14.47;5.63;;;;;11.80;101697.00;;;;10544599;27;20287;-79
2024/04/14 02:46:06;;;;;;;14.57;5.87;;;;;11.70;101703.00;;;;10549988;27;20265;-79
2024/04/14 02:51:07;;;;;;;10.93;6.43;;;;;11.70;101715.00;;;;10579179;27;20586;-87
2024/04/14 02:56:42;;;;;;;16.17;6.13;;;;;11.70;101708.00;;;;11218858;22;20267;31
2024/04/14 03:02:03;;;;;;;14.10;5.75;;;;;11.60;101714.00;;;;11722513;22;20261;31
2024/04/14 03:13:28;;;;;;;12.87;6.27;;;;;11.50;101706.00;;;;12003196;22;20332;31
2024/04/14 03:19:09;;;;;;;15.20;6.20;;;;;11.50;101711.00;;;;5196027;22;20471;-87
2024/04/14 03:55:01;;;;;;;15.20;7.10;;;;;11.70;101730.00;;;;12855013;22;20321;31
2024/04/14 04:05:54;;;;;;;16.67;7.20;;;;;11.90;101738.00;;;;10440723;28;20309;-81
2024/04/14 04:11:05;;;;;;;17.40;7.30;;;;;12.00;101737.00;;;;10442937;28;20407;-79
2024/04/14 04:16:07;;;;;;;13.90;7.23;;;;;12.10;101729.00;;;;10492719;28;20289;-78
2024/04/14 04:21:09;;;;;;;17.47;7.63;;;;;12.10;101715.00;;;;10474021;27;20273;-78
2024/04/14 04:26:10;;;;;;;18.13;7.90;;;;;11.90;101722.00;;;;10442912;27;20262;-79
2024/04/14 04:31:12;;;;;;;17.63;8.47;;;;;11.80;101720.00;;;;10473852;27;20267;-79
2024/04/14 04:36:14;;;;;;;17.83;7.97;;;;;11.60;101735.00;;;;10467887;28;20262;-78
2024/04/14 04:41:16;;;;;;;21.67;8.17;;;;;11.50;101740.00;;;;10422135;28;20266;-79
2024/04/14 04:46:17;;;;;;;19.20;8.87;;;;;11.50;101739.00;;;;10443406;27;20266;-80
2024/04/14 04:51:19;;;;;;;16.80;8.70;;;;;11.50;101752.00;;;;10463885;28;20298;-80
2024/04/14 04:56:20;;;;;;;18.97;8.70;;;;;11.50;101763.00;;;;10447652;27;20336;-79
2024/04/14 05:01:22;;;;;;;20.70;9.10;;;;;11.60;101766.00;;;;10414471;28;20290;-80
2024/04/14 05:06:24;;;;;;;25.40;9.80;;;;;11.70;101768.00;;;;10442153;28;20358;-79
2024/04/14 05:11:25;;;;;;;19.77;9.67;;;;;11.80;101762.00;;;;10434641;27;20285;-85
2024/04/14 05:16:27;;;;;;;19.73;9.53;;;;;11.90;101757.00;;;;10449766;28;20382;-85
2024/04/14 05:21:29;;;;;;;18.63;10.10;;;;;11.90;101761.00;;;;10487745;28;20271;-85
2024/04/14 05:26:30;;;;;;;21.00;9.07;;;;;12.00;101772.00;;;;10466785;27;20270;-86
2024/04/14 05:31:32;;;;;;;16.90;9.60;;;;;12.00;101779.00;;;;10480794;28;20284;-86
2024/04/14 05:36:33;;;;;;;17.97;9.67;;;;;12.10;101771.00;;;;10422783;28;20266;-86
2024/04/14 05:41:35;;;;;;;19.20;10.23;;;;;12.20;101782.00;;;;10427880;28;20710;-86
2024/04/14 05:46:36;;;;;;;22.20;10.57;;;;;12.30;101775.00;;;;10434340;28;20801;-86
2024/04/14 05:51:37;;;;;;;22.33;10.33;;;;;12.50;101785.00;;;;10400188;27;20291;-86
2024/04/14 05:56:39;;;;;;;22.13;10.60;;;;;12.60;101795.00;;;;10481490;27;21187;-86
2024/04/14 06:01:41;;;;;;;25.47;12.13;;;;;12.80;101786.00;;;;10435757;27;20374;-85
2024/04/14 06:06:43;;;;;;;26.13;10.27;;;;;13.00;101788.00;;;;10455773;28;20263;-86
2024/04/14 06:11:44;;;;;;;22.97;11.07;;;;;13.10;101786.00;;;;10483528;27;20258;-85
2024/04/14 06:16:47;;;;;;;25.27;11.80;;;;;13.20;101791.00;;;;10424743;28;20267;-85
2024/04/14 06:21:48;;;;;;;21.33;10.47;;;;;13.30;101795.00;;;;10426012;28;20877;-82
2024/04/14 06:26:50;;;;;;;17.47;11.00;;;;;13.40;101793.00;;;;10445923;28;20262;-83
2024/04/14 06:31:52;;;;;;;23.17;10.60;;;;;13.40;101795.00;;;;10489655;28;20292;-83
2024/04/14 06:36:54;;;;;;;27.83;10.80;;;;;13.50;101807.00;;;;10430063;28;20377;-83
2024/04/14 06:41:55;;;;;;;23.93;10.83;;;;;13.60;101809.00;;;;10466997;28;20984;-84
2024/04/14 06:46:57;;;;;;;20.93;10.33;;;;;13.50;101806.00;;;;10446376;28;20382;-82
2024/04/14 06:51:58;;;;;;;20.43;10.00;;;;;13.60;101810.00;;;;10448580;28;20262;-83
2024/04/14 06:57:00;;;;;;;20.33;9.13;;;;;13.70;101812.00;;;;10457805;28;20277;-83
2024/04/14 07:02:02;;;;;;;23.70;9.70;;;;;14.20;101818.00;;;;10433007;28;20259;-83
2024/04/14 07:07:03;;;;;;;20.03;7.23;;;;;14.30;101826.00;;;;10466422;28;20439;-82
2024/04/14 07:12:05;;;;;;;14.13;7.37;;;;;14.10;101824.00;;;;10445547;28;20309;-83
2024/04/14 07:17:06;;;;;;;13.13;7.27;;;;;14.10;101823.00;;;;10454010;27;20558;-83
2024/04/14 07:22:08;;;;;;;16.93;7.80;;;;;14.30;101837.00;;;;10432498;28;20369;-84
2024/04/14 07:27:09;;;;;;;22.73;7.60;;;;;14.50;101844.00;;;;10478864;28;20293;-83
2024/04/14 07:32:11;;;;;;;19.30;8.03;;;;;14.80;101830.00;;;;10479223;28;20354;-86
2024/04/14 07:37:13;;;;;;;13.70;6.80;;;;;15.00;101837.00;;;;10439295;27;20358;-86
2024/04/14 07:42:14;;;;;;;13.33;6.03;;;;;15.50;101822.00;;;;10459676;27;20305;-85
2024/04/14 07:47:15;;;;;;;14.00;6.60;;;;;16.20;101825.00;;;;10451076;28;20271;-84
2024/04/14 07:52:17;;;;;;;12.35;4.40;;;;;16.70;101835.00;;;;10461975;28;20711;-84
2024/04/14 07:57:19;;;;;;;12.05;5.38;;;;;17.10;101844.00;;;;10470651;27;20316;-84
2024/04/14 08:02:20;;;;;;;15.02;6.03;;;;;17.00;101847.00;;;;10453763;28;20319;-85
2024/04/14 08:07:22;;;;;;;11.70;5.40;;;;;16.80;101848.00;;;;10449322;28;20262;-85
2024/04/14 08:12:25;;;;;;;10.52;4.25;;;;;17.00;101839.00;;;;10434402;28;20275;-85
2024/04/14 08:17:27;;;;;;;19.88;4.72;;;;;17.00;101832.00;;;;10436844;27;20267;-85
2024/04/14 08:22:29;;;;;;;12.45;4.28;;;;;17.40;101847.00;;;;10495000;28;20405;-85
2024/04/14 08:27:30;;;;;;;8.98;4.32;;;;;17.30;101838.00;;;;10465173;28;20306;-84
2024/04/14 08:32:32;;;;;;;9.27;4.00;;;;;16.80;101839.00;;;;10459777;28;20274;-85
2024/04/14 08:37:34;;;;;;;9.20;4.18;;;;;16.50;101847.00;;;;10426885;28;20271;-85
2024/04/14 08:42:36;;;;;;;13.73;3.63;;;;;16.60;101847.00;;;;10444779;28;20271;-79
2024/04/14 08:47:39;;;;;;;13.75;4.28;;;;;16.90;101837.00;;;;10486394;27;20347;-80
2024/04/14 08:52:42;;;;;;;12.50;4.10;;;;;17.90;101838.00;;;;10451695;27;20262;-81
2024/04/14 08:57:44;;;;;;;9.95;3.40;;;;;18.80;101847.00;;;;10451897;27;20289;-81
2024/04/14 09:02:45;;;;;;;11.00;3.65;;;;;18.50;101849.00;;;;10460099;27;20373;-80
2024/04/14 09:07:46;;;;;;;10.10;3.50;;;;;18.50;101860.00;;;;10476313;27;20259;-80
2024/04/14 09:12:48;;;;;;;11.50;3.97;;;;;18.80;101856.00;;;;10417276;27;20282;-81
2024/04/14 09:17:49;;;;;;;8.07;3.45;;;;;19.10;101855.00;;;;10462152;28;20760;-80
2024/04/14 09:22:51;;;;;;;10.18;3.05;;;;;19.10;101857.00;;;;10442125;28;20266;-79
2024/04/14 09:28:11;;;;;;;9.35;2.55;;;;;18.20;101857.00;;;;10477184;27;20271;-80
2024/04/14 09:33:14;;;;;;;6.80;2.10;;;;;18.70;101850.00;;;;10418358;28;20267;-80
2024/04/14 09:38:17;;;;;;;10.95;2.45;;;;;19.10;101860.00;;;;10400218;28;20371;-81
2024/04/14 09:43:20;;;;;;;6.35;2.25;;;;;19.70;101855.00;;;;10468679;28;20267;-80
2024/04/14 09:48:23;;;;;;;7.45;2.40;;;;;18.90;101855.00;;;;10476849;28;20263;-80
2024/04/14 09:53:31;;;;;;;6.20;2.17;;;;;18.60;101853.00;;;;10485907;28;20297;-80
2024/04/14 09:58:33;;;;;;;6.15;1.90;;;;;19.40;101862.00;;;;10470111;27;20269;-80
2024/04/14 10:03:36;;;;;;;7.55;2.00;;;;;20.80;101857.00;;;;10465939;27;20404;-79
2024/04/14 10:08:38;;;;;;;7.07;2.28;;;;;21.00;101878.00;;;;10476892;28;20334;-80
2024/04/14 10:13:49;;;;;;;8.88;2.35;;;;;20.80;101865.00;;;;10442415;28;20261;-80
2024/04/14 10:18:51;;;;;;;5.68;1.92;;;;;19.80;101870.00;;;;10452234;28;20274;-80
2024/04/14 10:23:52;;;;;;;7.78;2.15;;;;;18.90;101869.00;;;;10468617;27;20275;-81
2024/04/14 10:28:55;;;;;;;9.18;2.35;;;;;19.80;101873.00;;;;10437118;27;20313;-80
2024/04/14 10:34:21;;;;;;;6.28;2.15;;;;;21.20;101853.00;;;;10445838;28;20275;-80
2024/04/14 10:39:24;;;;;;;6.63;1.88;;;;;21.50;101850.00;;;;10434462;28;20270;-80
2024/04/14 10:44:25;;;;;;;5.65;2.05;;;;;21.80;101846.00;;;;10416452;28;20263;-80
2024/04/14 10:49:27;;;;;;;4.35;1.98;;;;;23.00;101844.00;;;;10451559;28;20324;-81
2024/04/14 10:54:29;;;;;;;8.50;1.80;;;;;22.90;101841.00;;;;10437248;28;20289;-80
2024/04/14 10:59:31;;;;;;;7.93;2.30;;;;;23.10;101839.00;;;;10472896;28;20641;-80
2024/04/14 11:04:33;;;;;;;6.18;2.00;;;;;23.50;101840.00;;;;10415498;27;20259;-80
2024/04/14 11:09:35;;;;;;;5.05;1.80;;;;;22.70;101831.00;;;;10421141;28;20289;-81
2024/04/14 11:14:37;;;;;;;5.55;2.03;;;;;22.70;101819.00;;;;10465684;28;20367;-80
2024/04/14 11:19:39;;;;;;;6.28;2.10;;;;;22.50;101821.00;;;;10465574;28;20327;-81
2024/04/14 11:24:40;;;;;;;4.22;1.85;;;;;22.30;101811.00;;;;10455942;28;20914;-80
2024/04/14 11:29:42;;;;;;;4.85;2.03;;;;;21.60;101799.00;;;;10489656;28;20289;-80
2024/04/14 11:34:50;;;;;;;6.45;2.05;;;;;21.20;101803.00;;;;10386411;28;20285;-80
2024/04/14 11:39:51;;;;;;;6.90;2.35;;;;;21.20;101795.00;;;;10462939;27;20271;-81
2024/04/14 11:44:55;;;;;;;7.68;2.50;;;;;20.70;101798.00;;;;10481886;28;20289;-81
2024/04/14 11:49:56;;;;;;;8.55;2.97;;;;;20.20;101775.00;;;;10427780;28;20391;-80
2024/04/14 11:55:09;;;;;;;4.07;2.38;;;;;20.60;101775.00;;;;10481119;27;20266;-81
2024/04/14 12:00:10;;;;;;;7.18;2.47;;;;;21.80;101769.00;;;;10461637;27;20315;-80
2024/04/14 12:05:18;;;;;;;6.75;2.58;;;;;23.20;101772.00;;;;10463323;28;20301;-80
2024/04/14 12:10:20;;;;;;;7.68;3.00;;;;;22.50;101777.00;;;;10419633;28;20390;-81
2024/04/14 12:15:21;;;;;;;8.13;3.00;;;;;23.30;101761.00;;;;10449894;28;20273;-83
2024/04/14 12:20:22;;;;;;;8.02;2.80;;;;;23.80;101748.00;;;;10473794;28;20283;-84
2024/04/14 12:25:24;;;;;;;6.13;2.95;;;;;24.00;101741.00;;;;10460999;27;20277;-83
2024/04/14 12:30:25;;;;;;;6.60;3.00;;;;;22.60;101750.00;;;;10464960;27;20315;-83
2024/04/14 12:35:41;;;;;;;4.05;2.67;;;;;21.70;101735.00;;;;10490644;27;20281;-82
2024/04/14 12:40:42;;;;;;;5.88;2.80;;;;;21.50;101713.00;;;;10461235;28;20266;-84
2024/04/14 12:45:48;;;;;;;9.35;2.90;;;;;22.00;101694.00;;;;10451816;27;20273;-84
2024/04/14 12:50:51;;;;;;;6.22;3.10;;;;;21.60;101695.00;;;;10440728;28;20888;-83
2024/04/14 12:55:52;;;;;;;8.35;3.40;;;;;22.10;101695.00;;;;10420313;28;20308;-83
2024/04/14 13:00:57;;;;;;;7.97;3.05;;;;;23.30;101688.00;;;;10500892;28;21187;-83
2024/04/14 13:05:59;;;;;;;5.70;3.33;;;;;22.80;101675.00;;;;10487804;28;20305;-83
2024/04/14 13:11:05;;;;;;;7.25;2.95;;;;;22.30;101669.00;;;;10491251;27;20602;-83
2024/04/14 13:16:06;;;;;;;6.45;2.75;;;;;22.40;101661.00;;;;10452171;28;20381;-85
2024/04/14 13:21:08;;;;;;;5.88;2.92;;;;;21.50;101664.00;;;;10459151;28;20306;-84
2024/04/14 13:26:10;;;;;;;11.55;2.95;;;;;20.70;101659.00;;;;10440968;28;20283;-83
2024/04/14 13:31:11;;;;;;;11.32;3.40;;;;;20.80;101642.00;;;;10497835;27;20266;-84
2024/04/14 13:36:12;;;;;;;5.97;2.90;;;;;21.20;101636.00;;;;10452571;28;20270;-84
2024/04/14 13:41:15;;;;;;;6.50;2.75;;;;;21.60;101638.00;;;;10457372;28;20341;-83
2024/04/14 13:46:19;;;;;;;4.95;2.10;;;;;21.90;101618.00;;;;10417079;28;20293;-84
2024/04/14 13:51:21;;;;;;;7.20;2.90;;;;;21.50;101631.00;;;;10460644;28;20524;-83
2024/04/14 13:56:22;;;;;;;5.28;2.47;;;;;21.80;101608.00;;;;10470197;27;20271;-84
2024/04/14 14:01:24;;;;;;;8.10;2.78;;;;;21.80;101604.00;;;;10510699;28;20269;-84
2024/04/14 14:06:25;;;;;;;8.05;2.55;;;;;22.40;101602.00;;;;10495267;28;20701;-84
2024/04/14 14:11:27;;;;;;;4.68;2.30;;;;;22.60;101588.00;;;;10426885;28;20352;-84
2024/04/14 14:16:28;;;;;;;5.05;3.63;;;;;21.90;101585.00;;;;10480312;27;20337;-85
2024/04/14 14:21:29;;;;;;;4.90;2.80;;;;;22.10;101587.00;;;;10441716;28;20268;-84
2024/04/14 14:26:31;;;;;;;8.30;2.47;;;;;22.00;101583.00;;;;10490996;27;20274;-83
2024/04/14 14:31:33;;;;;;;11.02;2.58;;;;;21.20;101578.00;;;;10473539;28;20635;-84
2024/04/14 14:36:37;;;;;;;5.28;2.60;;;;;21.00;101569.00;;;;10454533;28;20366;-84
2024/04/14 14:41:38;;;;;;;4.90;2.10;;;;;20.90;101562.00;;;;10463923;27;20718;-84
2024/04/14 14:46:40;;;;;;;5.30;2.13;;;;;21.60;101549.00;;;;10475445;28;20274;-84
2024/04/14 14:51:41;;;;;;;5.82;2.10;;;;;21.50;101547.00;;;;10475608;27;20263;-83
2024/04/14 14:56:43;;;;;;;6.47;2.38;;;;;21.30;101559.00;;;;10464615;28;20334;-85
2024/04/14 15:01:44;;;;;;;7.45;2.70;;;;;20.70;101543.00;;;;10457697;27;20332;-84
2024/04/14 15:06:46;;;;;;;9.07;2.20;;;;;20.80;101545.00;;;;10456276;28;20390;-84
2024/04/14 15:11:47;;;;;;;5.45;2.08;;;;;21.00;101565.00;;;;10485410;28;20263;-84
2024/04/14 15:16:49;;;;;;;5.30;2.00;;;;;21.00;101544.00;;;;10435698;28;20271;-84
2024/04/14 15:21:51;;;;;;;5.82;2.30;;;;;20.70;101545.00;;;;10442939;27;20293;-85
2024/04/14 15:26:52;;;;;;;6.80;2.35;;;;;20.60;101538.00;;;;10467008;27;20349;-84
2024/04/14 15:31:53;;;;;;;5.75;2.65;;;;;20.20;101515.00;;;;10493879;28;20321;-85
2024/04/14 15:36:55;;;;;;;8.25;2.03;;;;;19.70;101505.00;;;;10484930;28;20283;-84
2024/04/14 15:41:59;;;;;;;5.20;1.90;;;;;19.40;101506.00;;;;10481876;28;20805;-81
2024/04/14 15:47:01;;;;;;;17.77;9.43;;;;;19.10;101505.00;;;;10401635;28;20297;-82
2024/04/14 15:52:02;;;;;;;7.20;3.53;;;;;19.00;101509.00;;;;10433001;28;20262;-82
2024/04/14 15:57:04;;;;;;;5.38;2.20;;;;;18.80;101488.00;;;;10478819;28;21111;-82
2024/04/14 16:02:06;;;;;;;8.70;2.53;;;;;18.80;101480.00;;;;10432915;28;20266;-83
2024/04/14 16:07:07;;;;;;;3.95;2.25;;;;;18.60;101479.00;;;;10456878;28;20317;-81
2024/04/14 16:12:10;;;;;;;5.78;2.63;;;;;18.80;101483.00;;;;10500169;27;20263;-81
2024/04/14 16:17:11;;;;;;;7.50;2.90;;;;;18.80;101473.00;;;;10461361;28;21310;-81
2024/04/14 16:22:13;;;;;;;6.60;2.10;;;;;18.80;101475.00;;;;10457819;27;20270;-81
2024/04/14 16:27:16;;;;;;;7.47;2.15;;;;;18.70;101463.00;;;;10408903;28;20626;-81
2024/04/14 16:32:17;;;;;;;5.40;2.17;;;;;18.50;101447.00;;;;10416415;27;21079;-81
2024/04/14 16:37:19;;;;;;;4.10;2.00;;;;;18.40;101441.00;;;;10455677;27;20296;-81
2024/04/14 16:42:20;;;;;;;5.90;2.30;;;;;18.20;101442.00;;;;10454801;27;20317;-81
2024/04/14 16:47:21;;;;;;;6.18;2.85;;;;;17.80;101437.00;;;;10417370;28;20333;-81
2024/04/14 16:52:23;;;;;;;6.20;2.30;;;;;17.50;101432.00;;;;10457548;28;20660;-85
2024/04/14 16:57:26;;;;;;;7.47;2.33;;;;;17.30;101422.00;;;;10467223;28;20297;-84
2024/04/14 17:02:27;;;;;;;6.05;2.15;;;;;17.20;101418.00;;;;10453613;27;20264;-84
2024/04/14 17:07:30;;;;;;;6.70;2.47;;;;;17.10;101421.00;;;;10438185;28;20314;-85
2024/04/14 17:12:32;;;;;;;8.63;2.13;;;;;17.00;101407.00;;;;10424793;28;20270;-85
2024/04/14 17:17:34;;;;;;;6.47;2.15;;;;;16.80;101402.00;;;;10474831;28;20345;-85
2024/04/14 17:22:36;;;;;;;8.93;2.20;;;;;16.60;101396.00;;;;10491974;27;20266;-84
2024/04/14 17:27:37;;;;;;;8.25;2.30;;;;;16.40;101392.00;;;;10436931;28;20262;-84
2024/04/14 17:32:39;;;;;;;5.55;2.17;;;;;16.20;101385.00;;;;10485746;28;20991;-85
2024/04/14 17:37:40;;;;;;;5.50;2.47;;;;;16.10;101375.00;;;;10465589;27;20399;-85
2024/04/14 17:42:42;;;;;;;6.97;2.30;;;;;16.10;101359.00;;;;10469219;27;20274;-85
2024/04/14 17:47:45;;;;;;;9.65;2.47;;;;;15.90;101346.00;;;;10446612;27;20271;-84
2024/04/14 17:52:46;;;;;;;8.35;2.70;;;;;15.80;101339.00;;;;10484849;27;20262;-85
2024/04/14 17:57:47;;;;;;;10.77;2.33;;;;;15.80;101336.00;;;;10451947;28;20271;-84
2024/04/14 18:02:49;;;;;;;6.05;2.53;;;;;15.70;101322.00;;;;10443221;28;20266;-83
2024/04/14 18:07:50;;;;;;;5.70;3.00;;;;;15.60;101325.00;;;;10438180;28;20322;-84
2024/04/14 18:12:52;;;;;;;5.82;3.03;;;;;15.50;101317.00;;;;10483924;28;20271;-83
2024/04/14 18:17:53;;;;;;;4.55;3.33;;;;;15.40;101310.00;;;;10433422;28;20265;-84
2024/04/14 18:22:57;;;;;;;9.10;3.28;;;;;15.30;101317.00;;;;10401336;28;20266;-83
2024/04/14 18:28:01;;;;;;;9.15;3.28;;;;;15.20;101312.00;;;;10491779;27;20358;-83
2024/04/14 18:33:04;;;;;;;6.00;2.85;;;;;15.10;101327.00;;;;10465928;28;20305;-83
2024/04/14 18:38:05;;;;;;;6.35;2.65;;;;;15.00;101316.00;;;;10442996;28;20305;-83
2024/04/14 18:43:07;;;;;;;10.05;2.65;;;;;14.90;101328.00;;;;10423192;28;20765;-84
2024/04/14 18:48:08;;;;;;;7.80;2.33;;;;;14.60;101314.00;;;;10456558;27;20278;-84
2024/04/14 18:53:10;;;;;;;5.63;2.50;;;;;14.30;101316.00;;;;10418763;28;20976;-84
2024/04/14 18:58:11;;;;;;;9.07;2.45;;;;;14.00;101333.00;;;;10453670;28;20312;-84
2024/04/14 19:03:13;;;;;;;5.97;1.90;;;;;13.70;101339.00;;;;10483629;27;20307;-83
2024/04/14 19:08:21;;;;;;;10.10;2.10;;;;;13.50;101342.00;;;;10461834;27;20307;-84
2024/04/14 19:13:22;;;;;;;8.23;2.07;;;;;13.30;101347.00;;;;10470027;28;20269;-80
2024/04/14 19:18:24;;;;;;;8.60;2.30;;;;;13.20;101352.00;;;;10462244;28;20788;-81
2024/04/14 19:23:26;;;;;;;6.90;2.03;;;;;13.10;101347.00;;;;10427765;28;20301;-79
2024/04/14 19:28:27;;;;;;;5.77;1.90;;;;;13.00;101342.00;;;;10464631;27;20266;-80
2024/04/14 19:33:29;;;;;;;6.77;1.73;;;;;12.80;101324.00;;;;10453696;27;20307;-81
2024/04/14 19:38:33;;;;;;;8.90;1.63;;;;;12.70;101311.00;;;;10461978;27;20262;-79
2024/04/14 19:43:35;;;;;;;9.03;1.53;;;;;12.70;101320.00;;;;10430922;28;20265;-80
2024/04/14 19:48:36;;;;;;;5.70;2.03;;;;;12.60;101324.00;;;;10453033;28;20367;-80
2024/04/14 19:53:38;;;;;;;5.77;1.60;;;;;12.60;101331.00;;;;10471164;28;20275;-80
2024/04/14 19:58:39;;;;;;;2.93;1.87;;;;;12.50;101339.00;;;;10437982;27;20308;-80
2024/04/14 20:03:41;;;;;;;4.10;1.30;;;;;12.50;101339.00;;;;10460730;27;20304;-80
2024/04/14 20:08:42;;;;;;;5.83;1.83;;;;;12.50;101335.00;;;;10492604;27;20267;-80
2024/04/14 20:13:43;;;;;;;9.27;1.90;;;;;12.50;101360.00;;;;10419495;27;20263;-80
2024/04/14 20:18:45;;;;;;;4.60;1.53;;;;;12.40;101368.00;;;;10459549;28;20254;-80
2024/04/14 20:23:47;;;;;;;7.13;1.90;;;;;12.40;101369.00;;;;10487069;28;20263;-80
2024/04/14 20:28:48;;;;;;;5.70;1.67;;;;;12.30;101371.00;;;;10416505;28;20354;-79
2024/04/14 20:33:50;;;;;;;4.90;1.40;;;;;12.40;101371.00;;;;10427900;27;20773;-80
2024/04/14 20:38:56;;;;;;;4.23;1.57;;;;;12.40;101362.00;;;;10443573;27;20777;-81
2024/04/14 20:43:58;;;;;;;10.63;2.00;;;;;12.30;101372.00;;;;10441501;27;20384;-81
2024/04/14 20:49:01;;;;;;;4.67;1.37;;;;;12.30;101366.00;;;;10431388;28;20270;-80
2024/04/14 20:54:02;;;;;;;6.87;1.70;;;;;12.20;101350.00;;;;10448960;28;20270;-79
2024/04/14 20:59:04;;;;;;;7.53;2.07;;;;;12.20;101326.00;;;;10435893;27;20655;-80
2024/04/14 21:04:06;;;;;;;5.03;1.87;;;;;12.20;101330.00;;;;10472390;28;20357;-80
2024/04/14 21:09:07;;;;;;;6.83;2.03;;;;;12.10;101309.00;;;;10451364;28;20297;-79
2024/04/14 21:14:09;;;;;;;7.27;1.80;;;;;12.10;101334.00;;;;10479929;27;20522;-80
2024/04/14 21:19:11;;;;;;;8.37;1.80;;;;;12.20;101317.00;;;;10491847;27;20271;-79
2024/04/14 21:24:12;;;;;;;7.90;2.10;;;;;12.20;101313.00;;;;10443785;27;20262;-80
2024/04/14 21:29:16;;;;;;;5.63;1.93;;;;;12.20;101284.00;;;;10440494;27;20278;-80
2024/04/14 21:34:17;;;;;;;8.97;1.77;;;;;12.20;101281.00;;;;10478546;28;20408;-83
2024/04/14 21:39:19;;;;;;;6.50;2.30;;;;;12.20;101277.00;;;;10455855;28;21159;-84
2024/04/14 21:44:21;;;;;;;9.20;1.80;;;;;12.20;101286.00;;;;10452167;28;20274;-84
2024/04/14 21:49:22;;;;;;;4.73;2.07;;;;;12.20;101262.00;;;;10453619;27;20270;-84
2024/04/14 21:54:24;;;;;;;7.13;2.30;;;;;12.20;101262.00;;;;10454742;28;20266;-83
2024/04/14 21:59:30;;;;;;;10.30;2.20;;;;;12.20;101236.00;;;;10429345;28;20280;-84
2024/04/14 22:04:31;;;;;;;7.20;1.77;;;;;12.20;101236.00;;;;10437281;27;20273;-84
2024/04/14 22:09:33;;;;;;;7.10;1.43;;;;;12.20;101237.00;;;;10451540;28;20275;-84
2024/04/14 22:14:34;;;;;;;10.37;2.03;;;;;12.20;101210.00;;;;10456492;28;20267;-84
2024/04/14 22:19:35;;;;;;;8.53;2.17;;;;;12.20;101240.00;;;;10449786;27;21281;-84
2024/04/14 22:24:39;;;;;;;6.80;1.50;;;;;12.10;101219.00;;;;10478618;27;20285;-84
2024/04/14 22:29:41;;;;;;;9.93;2.20;;;;;12.10;101217.00;;;;10472174;27;20294;-84
2024/04/14 22:34:42;;;;;;;6.50;1.93;;;;;12.10;101215.00;;;;10422799;27;20263;-83
2024/04/14 22:39:44;;;;;;;6.30;1.60;;;;;12.10;101164.00;;;;10462509;27;20274;-84
2024/04/14 22:44:46;;;;;;;5.23;1.87;;;;;11.90;101162.00;;;;10450090;28;20270;-79
2024/04/14 22:49:47;;;;;;;6.50;1.60;;;;;11.80;101141.00;;;;10444709;27;20368;-79
2024/04/14 22:54:49;;;;;;;7.60;1.73;;;;;11.60;101133.00;;;;10443467;27;20664;-78
2024/04/14 22:59:50;;;;;;;9.03;1.73;;;;;11.50;101123.00;;;;10416935;27;20991;-78
2024/04/14 23:04:52;;;;;;;5.77;1.73;;;;;11.40;101137.00;;;;10458644;27;20280;-81
2024/04/14 23:09:53;;;;;;;5.20;1.60;;;;;11.30;101145.00;;;;10440192;28;20286;-78
2024/04/14 23:14:55;;;;;;;9.60;2.10;;;;;11.40;101161.00;;;;10424996;28;20357;-78
2024/04/14 23:19:58;;;;;;;5.57;1.57;;;;;11.30;101151.00;;;;10449931;28;20294;-79
2024/04/14 23:24:59;;;;;;;7.87;1.70;;;;;11.20;101137.00;;;;10460793;28;20327;-79
2024/04/14 23:30:01;;;;;;;11.23;1.93;;;;;11.10;101126.00;;;;10421421;27;21060;-79
2024/04/14 23:35:03;;;;;;;9.20;1.83;;;;;10.90;101128.00;;;;10463450;28;20266;-78
2024/04/14 23:40:05;;;;;;;10.17;1.93;;;;;10.60;101119.00;;;;10452085;27;20270;-79
2024/04/14 23:45:07;;;;;;;11.40;2.57;;;;;10.40;101108.00;;;;10439635;27;20637;-79
2024/04/14 23:50:08;;;;;;;7.20;1.70;;;;;10.30;101096.00;;;;10447058;28;20305;-78
2024/04/14 23:55:09;;;;;;;6.27;2.40;;;;;10.20;101106.00;;;;10444281;28;20270;-79
